Aviation Digital Data Service (ADDS)

Output produced by METARs form (2125 UTC 17 December 2014)
found at http://www.aviationweather.gov/adds/metars/
 
KBMI 172051Z 1721/1818 29008KT P6SM OVC015 
     FM172300 32005KT P6SM SCT015 BKN250 
     FM181400 VRB03KT P6SM BKN080